createdAt,value
2023-01-18T00:04:30.660Z,98648.78
2023-01-18T00:11:32.294Z,98636.63
2023-01-18T00:18:35.963Z,98624.75
2023-01-18T00:25:37.695Z,98615.34
2023-01-18T00:32:39.365Z,98620.84
2023-01-18T00:39:41.086Z,98628.16
2023-01-18T00:46:42.794Z,98632.06
2023-01-18T00:53:45.712Z,98619.78
2023-01-18T01:00:48.709Z,98633.41
2023-01-18T01:07:50.403Z,98633.41
2023-01-18T01:15:10.910Z,98651.16
2023-01-18T01:22:31.300Z,98661.22
2023-01-18T01:29:32.984Z,98684.50
2023-01-18T01:36:34.719Z,98702.50
2023-01-18T01:43:40.713Z,98706.19
2023-01-18T01:50:42.403Z,98709.44
2023-01-18T01:58:08.943Z,98718.34
2023-01-18T02:05:12.039Z,98717.00
2023-01-18T02:12:13.689Z,98737.69
2023-01-18T02:19:24.282Z,98705.25
2023-01-18T02:26:53.276Z,98719.19
2023-01-18T02:34:00.880Z,98708.38
2023-01-18T02:41:20.943Z,98723.94
2023-01-18T02:48:23.503Z,98719.50
2023-01-18T02:55:40.191Z,98724.81
2023-01-18T03:02:43.026Z,98725.97
2023-01-18T03:09:44.751Z,98724.34
2023-01-18T03:16:59.531Z,98720.25
2023-01-18T03:24:01.115Z,98725.28
2023-01-18T03:31:23.098Z,98715.41
2023-01-18T03:38:24.770Z,98733.06
2023-01-18T03:45:42.418Z,98746.25
2023-01-18T03:52:45.100Z,98742.63
2023-01-18T03:59:46.691Z,98732.41
2023-01-18T04:06:48.347Z,98726.44
2023-01-18T04:13:49.972Z,98730.72
2023-01-18T04:20:56.337Z,98723.09
2023-01-18T04:27:57.976Z,98728.31
2023-01-18T04:34:59.635Z,98731.44
2023-01-18T04:42:01.355Z,98729.19
2023-01-18T04:49:02.982Z,98742.94
2023-01-18T04:56:05.008Z,98744.00
2023-01-18T05:03:10.442Z,98728.81
2023-01-18T05:10:12.160Z,98752.75
2023-01-18T05:17:13.857Z,98754.84
2023-01-18T05:24:15.571Z,98755.31
2023-01-18T05:31:18.887Z,98763.00
2023-01-18T05:38:20.936Z,98776.31
2023-01-18T05:45:22.527Z,98789.38
2023-01-18T05:52:24.125Z,98788.91
2023-01-18T05:59:25.759Z,98792.69
2023-01-18T06:06:27.470Z,98797.59
2023-01-18T06:13:29.991Z,98804.66
2023-01-18T06:20:31.696Z,98819.59
2023-01-18T06:27:33.344Z,98823.41
2023-01-18T06:34:36.855Z,98827.03
2023-01-18T06:41:39.168Z,98842.72
2023-01-18T06:48:40.841Z,98847.84
2023-01-18T06:55:42.643Z,98861.84
2023-01-18T07:02:44.299Z,98861.53
2023-01-18T07:09:46.016Z,98861.84
2023-01-18T07:16:47.858Z,98862.75
2023-01-18T07:23:49.584Z,98879.69
2023-01-18T07:30:51.229Z,98887.59
2023-01-18T07:37:55.792Z,98901.19
2023-01-18T07:44:57.535Z,98897.56
2023-01-18T07:51:59.240Z,98900.88
2023-01-18T07:59:00.877Z,98893.22
2023-01-18T08:06:03.285Z,98882.78
2023-01-18T08:13:05.137Z,98882.53
2023-01-18T08:20:09.390Z,98886.75
2023-01-18T08:27:11.031Z,98887.41
2023-01-18T08:34:12.807Z,98890.19
2023-01-18T08:41:14.463Z,98892.47
2023-01-18T08:48:16.089Z,98897.34
2023-01-18T08:55:17.751Z,98904.78
2023-01-18T09:02:19.428Z,98911.19
2023-01-18T09:09:21.035Z,98912.03
2023-01-18T09:16:22.759Z,98909.25
2023-01-18T09:23:24.674Z,98917.91
2023-01-18T09:30:26.507Z,98923.28
2023-01-18T09:37:28.406Z,98922.25
2023-01-18T09:44:31.459Z,98936.28
2023-01-18T09:51:56.524Z,98931.84
2023-01-18T09:59:07.593Z,98933.91
2023-01-18T10:06:15.521Z,98931.13
2023-01-18T10:13:33.927Z,98936.97
2023-01-18T10:21:00.736Z,98936.34
2023-01-18T10:28:33.022Z,98936.50
2023-01-18T10:35:36.568Z,98946.28
2023-01-18T10:42:43.478Z,98935.44
2023-01-18T10:49:46.273Z,98942.75
2023-01-18T10:56:47.997Z,98948.44
2023-01-18T11:04:06.742Z,98957.84
2023-01-18T11:11:47.023Z,98969.31
2023-01-18T11:18:55.702Z,98964.50
2023-01-18T11:26:00.770Z,98959.59
2023-01-18T11:33:02.472Z,98967.81
2023-01-18T11:40:20.416Z,98973.03
2023-01-18T11:47:29.046Z,98971.38
2023-01-18T11:54:46.698Z,98980.72
2023-01-18T12:02:04.171Z,98983.81
2023-01-18T12:09:22.797Z,98981.59
2023-01-18T12:16:41.429Z,98994.00
2023-01-18T12:24:04.591Z,98996.19
2023-01-18T12:31:40.073Z,99008.78
2023-01-18T12:38:51.881Z,99009.91
2023-01-18T12:46:23.187Z,99013.56
2023-01-18T12:53:45.956Z,99022.78
2023-01-18T13:00:57.247Z,99031.66
2023-01-18T13:08:06.278Z,99043.72
2023-01-18T13:15:26.330Z,99051.28
2023-01-18T13:22:46.947Z,99065.50
2023-01-18T13:29:48.953Z,99069.09
2023-01-18T13:36:50.705Z,99091.63
2023-01-18T13:43:53.643Z,99094.03
2023-01-18T13:50:55.371Z,99100.16
2023-01-18T13:57:58.232Z,99116.09
2023-01-18T14:05:04.802Z,99129.53
2023-01-18T14:12:07.094Z,99140.78
2023-01-18T14:19:17.036Z,99145.34
2023-01-18T14:26:18.751Z,99169.44
2023-01-18T14:33:36.432Z,99180.31
2023-01-18T14:40:38.065Z,99192.72
2023-01-18T14:47:39.841Z,99208.66
2023-01-18T14:54:55.016Z,99213.59
2023-01-18T15:01:58.952Z,99228.50
2023-01-18T15:09:01.588Z,99231.38
2023-01-18T15:16:04.051Z,99238.81
2023-01-18T15:23:06.021Z,99252.81
2023-01-18T15:30:11.988Z,99262.84
2023-01-18T15:37:22.615Z,99280.50
2023-01-18T15:44:36.160Z,99288.84
2023-01-18T15:51:58.844Z,99301.34
2023-01-18T15:59:01.106Z,99318.59
2023-01-18T16:06:11.286Z,99327.13
2023-01-18T16:13:32.142Z,99338.56
2023-01-18T16:20:33.721Z,99345.72
2023-01-18T16:27:46.417Z,99356.53
2023-01-18T16:34:48.168Z,99365.91
2023-01-18T16:41:55.020Z,99369.72
2023-01-18T16:48:56.677Z,99389.72
2023-01-18T16:56:21.595Z,99396.19
2023-01-18T17:03:24.364Z,99404.88
2023-01-18T17:10:36.912Z,99414.16
2023-01-18T17:17:41.472Z,99419.19
2023-01-18T17:24:46.395Z,99432.09
2023-01-18T17:31:53.154Z,99436.84
2023-01-18T17:38:55.163Z,99452.50
2023-01-18T17:46:01.383Z,99456.03
2023-01-18T17:53:03.903Z,99468.28
2023-01-18T18:00:08.218Z,99480.84
2023-01-18T18:07:10.159Z,99484.97
2023-01-18T18:14:11.892Z,99496.94
2023-01-18T18:21:13.692Z,99508.06
2023-01-18T18:28:15.836Z,99503.78
2023-01-18T18:35:25.625Z,99506.41
2023-01-18T18:42:29.259Z,99512.19
2023-01-18T18:49:32.614Z,99532.22
2023-01-18T18:56:34.801Z,99549.25
2023-01-18T19:03:36.662Z,99555.00
2023-01-18T19:10:39.375Z,99558.84
2023-01-18T19:17:41.268Z,99556.34
2023-01-18T19:24:43.128Z,99569.50
2023-01-18T19:31:44.926Z,99575.25
2023-01-18T19:38:52.550Z,99585.66
2023-01-18T19:45:59.427Z,99590.63
2023-01-18T19:53:01.730Z,99595.97
2023-01-18T20:00:07.414Z,99603.75
2023-01-18T20:07:16.481Z,99598.94
2023-01-18T20:14:19.651Z,99618.63
2023-01-18T20:21:21.500Z,99621.78
2023-01-18T20:28:26.117Z,99623.44
2023-01-18T20:35:28.419Z,99631.88
2023-01-18T20:42:30.239Z,99636.34
2023-01-18T20:49:39.352Z,99643.91
2023-01-18T20:56:41.072Z,99645.94
2023-01-18T21:03:43.433Z,99649.44
2023-01-18T21:10:45.427Z,99662.41
2023-01-18T21:17:50.440Z,99672.06
2023-01-18T21:24:52.306Z,99684.75
2023-01-18T21:31:54.170Z,99695.56
2023-01-18T21:38:55.841Z,99704.75
2023-01-18T21:45:57.795Z,99697.72
2023-01-18T21:53:17.989Z,99705.19
2023-01-18T22:00:19.912Z,99705.72
2023-01-18T22:07:22.033Z,99704.19
2023-01-18T22:14:23.939Z,99713.41
2023-01-18T22:21:25.805Z,99731.41
2023-01-18T22:28:28.139Z,99734.84
2023-01-18T22:35:31.234Z,99743.00
2023-01-18T22:42:33.075Z,99754.78
2023-01-18T22:49:35.043Z,99765.28
2023-01-18T22:56:36.668Z,99771.31
2023-01-18T23:03:38.311Z,99776.78
2023-01-18T23:10:39.944Z,99772.31
2023-01-18T23:17:43.226Z,99769.03
2023-01-18T23:24:44.982Z,99771.81
2023-01-18T23:31:46.846Z,99773.97
2023-01-18T23:39:07.212Z,99769.78
2023-01-18T23:46:27.202Z,99782.34
2023-01-18T23:53:47.405Z,99792.13
